Dades meteomassalio
Diari Summary for Noviembre 23, 2017 Units:  Metric    English   Both
« Previous Day
Next Day »
Diari Semanal Mensual Anual Personalitzat
  Maxima: Minima: Mijana:
Temperatura: -17.8 °C -18.4 °C -14 °C
Rosada: -17.8 °C -20.6 °C -17.6 °C
Humitat: Humidity % 38 % 65 %
Velocitat del vent: 0 km/h 0 km/h 1.6 km/h
Racha vent: 0 km/h - -
Vent:- - SE
Pressio: 0 hPa 34486.4 hPa -
Pluja: 0 mm    
Historical Graphs
 
 
Tabular Data for Noviembre 23, 2017
Time Temperature Dew Point Pressure Wind Wind Speed Wind Gust Humidity Rainfall Rate (Hourly) solar Conditions
-17.8 °C -17.8 °C 0 hPa Calm     Humidity % 0 mm SolarRadiationWatts/m^2 W/m2 Conditions
00:11 -18.4 °C -20.4 °C 34510.1 hPa Calm     76 % 0 mm 0.0 W/m2 CLR
00:16 -18.4 °C -20.4 °C 34510.1 hPa Calm     76 % 0 mm 0.0 W/m2 CLR
00:21 -18.4 °C -20.6 °C 34510.1 hPa Calm     75 % 0 mm 0.0 W/m2 CLR
00:26 -18.4 °C -20.6 °C 34510.1 hPa Calm     75 % 0 mm 0.0 W/m2 CLR
00:41 -18.4 °C -20.6 °C 34510.1 hPa Calm     75 % 0 mm 0.0 W/m2 CLR
00:51 -18.1 °C -20.1 °C 34510.1 hPa Calm     77 % 0 mm 0.0 W/m2 CLR
00:56 -18.1 °C -19.9 °C 34510.1 hPa Calm     78 % 0 mm 0.0 W/m2 CLR
01:01 -17.8 °C -19.8 °C 34510.1 hPa Calm     76 % 0 mm 0.0 W/m2 CLR
01:06 -18.1 °C -20.2 °C 34510.1 hPa Calm     76 % 0 mm 0.0 W/m2 CLR
01:11 -18.1 °C -20.1 °C 34510.1 hPa Calm     77 % 0 mm 0.0 W/m2 CLR
01:16 -18.1 °C -20.1 °C 34496.6 hPa Calm     77 % 0 mm 0.0 W/m2 CLR
01:26 -17.8 °C -19.8 °C 34486.4 hPa Calm     77 % 0 mm 0.0 W/m2 CLR
01:31 -17.8 °C -19.6 °C 34486.4 hPa Calm     79 % 0 mm 0.0 W/m2 CLR
01:36 -17.8 °C -19.8 °C 34486.4 hPa Calm     76 % 0 mm 0.0 W/m2 CLR
01:41 -18.1 °C -20.1 °C 34486.4 hPa Calm     77 % 0 mm 0.0 W/m2 CLR
01:51 -18.1 °C -19.9 °C 34486.4 hPa Calm     78 % 0 mm 0.0 W/m2 CLR
01:56 -18.1 °C -19.9 °C 34486.4 hPa Calm     79 % 0 mm 0.0 W/m2 CLR
02:01 -18.1 °C -19.9 °C 34486.4 hPa Calm     79 % 0 mm 0.0 W/m2 CLR
02:06 -17.8 °C -19.6 °C 34486.4 hPa Calm     79 % 0 mm 0.0 W/m2 CLR
02:11 -17.8 °C -19.6 °C 34486.4 hPa Calm     79 % 0 mm 0.0 W/m2 CLR
02:12 -17.8 °C -19.6 °C 34496.6 hPa Calm     79 % 0 mm 0.0 W/m2 CLR
02:17 -17.8 °C -19.6 °C 34496.6 hPa Calm     79 % 0 mm 0.0 W/m2 CLR
02:27 -18.1 °C -19.9 °C 34496.6 hPa Calm     79 % 0 mm 0.0 W/m2 CLR
02:32 -18.1 °C -19.8 °C 34496.6 hPa Calm     80 % 0 mm 0.0 W/m2 CLR
02:37 -17.8 °C -19.6 °C 34496.6 hPa Calm     79 % 0 mm 0.0 W/m2 CLR
02:52 -18.1 °C -19.9 °C 34510.1 hPa Calm     78 % 0 mm 0.0 W/m2 CLR
02:57 -18.1 °C -19.8 °C 34510.1 hPa Calm     80 % 0 mm 0.0 W/m2 CLR
03:02 -18.1 °C -19.7 °C 34510.1 hPa Calm     81 % 0 mm 0.0 W/m2 CLR
03:12 -18.4 °C -19.9 °C 34510.1 hPa Calm     81 % 0 mm 0.0 W/m2 CLR
03:17 -18.4 °C -20.1 °C 34510.1 hPa Calm     80 % 0 mm 0.0 W/m2 CLR
03:22 -18.1 °C -19.7 °C 34510.1 hPa Calm     81 % 0 mm 0.0 W/m2 CLR
03:27 -18.4 °C -20.1 °C 34510.1 hPa Calm     80 % 0 mm 0.0 W/m2 CLR
03:32 -18.4 °C -20.1 °C 34510.1 hPa Calm     80 % 0 mm 0.0 W/m2 CLR
03:37 -18.4 °C -20.2 °C 34510.1 hPa Calm     79 % 0 mm 0.0 W/m2 CLR
03:47 -18.4 °C -20.1 °C 34510.1 hPa Calm     80 % 0 mm 0.0 W/m2 CLR
03:57 -18.4 °C -19.9 °C 34510.1 hPa Calm     81 % 0 mm 0.0 W/m2 CLR
04:02 -18.4 °C -19.9 °C 34510.1 hPa Calm     81 % 0 mm 0.0 W/m2 CLR
04:07 -18.1 °C -19.8 °C 34510.1 hPa Calm     80 % 0 mm 0.0 W/m2 CLR
04:12 -18.1 °C -19.7 °C 34510.1 hPa Calm     81 % 0 mm 0.0 W/m2 CLR
04:19 -17.8 °C -19.5 °C 34510.1 hPa Calm     80 % 0 mm 0.0 W/m2 CLR
04:20 -17.8 °C -19.5 °C 34510.1 hPa Calm     80 % 0 mm 0.0 W/m2 CLR
04:23 -17.8 °C -19.5 °C 34510.1 hPa Calm     80 % 0 mm 0.0 W/m2 CLR
04:25 -17.8 °C -19.6 °C 34510.1 hPa Calm     79 % 0 mm 0.0 W/m2 CLR
04:27 -17.8 °C -19.6 °C 34510.1 hPa Calm     79 % 0 mm 0.0 W/m2 CLR
04:32 -17.8 °C -19.7 °C 34510.1 hPa Calm     78 % 0 mm 0.0 W/m2 CLR
04:33 -17.8 °C -19.7 °C 34510.1 hPa Calm     78 % 0 mm 0.0 W/m2 CLR
04:38 -17.8 °C -19.6 °C 34510.1 hPa Calm     79 % 0 mm 0.0 W/m2 CLR
04:43 -17.8 °C -19.6 °C 34510.1 hPa Calm     79 % 0 mm 0.0 W/m2 CLR
04:48 -17.8 °C -19.7 °C 34510.1 hPa Calm     78 % 0 mm 0.0 W/m2 CLR
04:53 -18.1 °C -19.9 °C 34510.1 hPa Calm     79 % 0 mm 0.0 W/m2 CLR
04:58 -18.1 °C -19.9 °C 34510.1 hPa Calm     79 % 0 mm 0.0 W/m2 CLR
05:03 -18.1 °C -19.8 °C 34510.1 hPa Calm     80 % 0 mm 0.0 W/m2 CLR
05:13 -18.1 °C -19.8 °C 34510.1 hPa Calm     80 % 0 mm 0.0 W/m2 CLR
05:18 -18.1 °C -19.9 °C 34510.1 hPa Calm     79 % 0 mm 0.0 W/m2 CLR
05:28 -18.1 °C -19.9 °C 34510.1 hPa Calm     79 % 0 mm 0.0 W/m2 CLR
05:33 -17.8 °C -19.5 °C 34510.1 hPa Calm     80 % 0 mm 0.0 W/m2 CLR
05:38 -17.8 °C -19.6 °C 34510.1 hPa Calm     79 % 0 mm 0.0 W/m2 CLR
05:43 -17.4 °C -19.3 °C 34520.3 hPa Calm     79 % 0 mm 0.0 W/m2 CLR
05:48 -17.4 °C -19.2 °C 34520.3 hPa Calm     80 % 0 mm 0.0 W/m2 CLR
05:53 -17.4 °C -19.2 °C 34510.1 hPa Calm     80 % 0 mm 0.0 W/m2 CLR
06:03 -17.4 °C -19.3 °C 34520.3 hPa Calm     78 % 0 mm 0.0 W/m2 CLR
06:13 -17.2 °C -19.1 °C 34520.3 hPa Calm     78 % 0 mm 0.0 W/m2 CLR
06:18 -17.2 °C -19.1 °C 34520.3 hPa Calm     78 % 0 mm 0.0 W/m2 CLR
06:23 -17.2 °C -18.9 °C 34533.8 hPa Calm     79 % 0 mm 0.0 W/m2 CLR
06:28 -17.2 °C -18.9 °C 34533.8 hPa Calm     79 % 0 mm 0.0 W/m2 CLR
06:33 -17.2 °C -19.3 °C 34533.8 hPa Calm     76 % 0 mm 0.0 W/m2 CLR
06:43 -17.2 °C -19.3 °C 34533.8 hPa Calm     76 % 0 mm 0.0 W/m2 CLR
06:48 -17.2 °C -19.2 °C 34533.8 hPa Calm     77 % 0 mm 0.0 W/m2 CLR
06:49 -17.2 °C -19.2 °C 34533.8 hPa Calm     77 % 0 mm 0.0 W/m2 CLR
06:54 -17.2 °C -19.2 °C 34533.8 hPa Calm     77 % 0 mm 0.0 W/m2 CLR
06:59 -17.2 °C -19.3 °C 34533.8 hPa Calm     76 % 0 mm 0.0 W/m2 CLR
07:09 -17.2 °C -19.3 °C 34544 hPa Calm     76 % 0 mm 0.0 W/m2 CLR
07:14 -17.4 °C -19.6 °C 34544 hPa Calm     76 % 0 mm 0.0 W/m2 CLR
07:24 -17.4 °C -19.4 °C 34544 hPa Calm     77 % 0 mm 0.0 W/m2 CLR
07:29 -17.2 °C -19.2 °C 34544 hPa Calm     77 % 0 mm 0.0 W/m2 CLR
07:34 -17.2 °C -19.2 °C 34544 hPa Calm     77 % 0 mm 0.0 W/m2 CLR
07:39 -17.2 °C -19.2 °C 34544 hPa Calm     77 % 0 mm 0.0 W/m2 CLR
07:44 -17.2 °C -19.3 °C 34544 hPa Calm     76 % 0 mm 0.0 W/m2 CLR
07:49 -17.2 °C -19.3 °C 34544 hPa Calm     76 % 0 mm 0.0 W/m2 OVC
07:54 -17.2 °C -19.1 °C 34544 hPa Calm     78 % 0 mm 9.0 W/m2 OVC
08:00 -17.2 °C -19.2 °C 34544 hPa Calm     77 % 0 mm 11.0 W/m2 BKN
08:05 -17.2 °C -19.2 °C 34544 hPa Calm     77 % 0 mm 9.0 W/m2 BKN
08:10 -17.2 °C -19.3 °C 34544 hPa Calm     76 % 0 mm 12.0 W/m2 BKN
08:15 -16.8 °C -19.1 °C 34544 hPa Calm     75 % 0 mm 21.0 W/m2 BKN
08:20 -16.8 °C -19.1 °C 34544 hPa Calm     75 % 0 mm 33.0 W/m2 BKN
08:25 -16.8 °C -19.1 °C 34554.1 hPa Calm     75 % 0 mm 42.0 W/m2 BKN
08:30 -16.8 °C -19.1 °C 34554.1 hPa Calm     75 % 0 mm 49.0 W/m2 SCT
08:35 -16.8 °C -19.2 °C 34554.1 hPa Calm     74 % 0 mm 53.0 W/m2 SCT
08:40 -16.6 °C -18.9 °C 34554.1 hPa Calm     73 % 0 mm 62.0 W/m2 SCT
08:45 -16.2 °C -18.6 °C 34554.1 hPa Calm     74 % 0 mm 81.0 W/m2 FEW
08:50 -16.2 °C -18.7 °C 34554.1 hPa Calm     73 % 0 mm 72.0 W/m2 FEW
09:00 -15.9 °C -18.4 °C 34554.1 hPa Calm     72 % 0 mm 90.0 W/m2 CLR
09:05 -15.6 °C -18.3 °C 34567.7 hPa Calm     71 % 0 mm 134.0 W/m2 CLR
09:10 -15.3 °C -18.2 °C 34567.7 hPa Calm     69 % 0 mm 134.0 W/m2 CLR
09:15 -14.7 °C -17.6 °C 34554.1 hPa Calm     69 % 0 mm 174.0 W/m2 CLR
09:20 -14.7 °C -17.8 °C 34554.1 hPa Calm     67 % 0 mm 86.0 W/m2 CLR
09:25 -14.7 °C -18.1 °C 34554.1 hPa Calm     65 % 0 mm 95.0 W/m2 CLR
09:30 -14.4 °C -17.8 °C 34554.1 hPa Calm     65 % 0 mm 123.0 W/m2 CLR
09:35 -14.4 °C -17.9 °C 34567.7 hPa Calm     64 % 0 mm 142.0 W/m2 CLR
09:45 -13.8 °C -17.7 °C 34567.7 hPa Calm     61 % 0 mm 144.0 W/m2 CLR
09:50 -13.4 °C -17.5 °C 34567.7 hPa Calm     60 % 0 mm 155.0 W/m2 CLR
09:55 -13.2 °C -17.2 °C 34567.7 hPa Calm     60 % 0 mm 156.0 W/m2 CLR
10:00 -13.2 °C -17.3 °C 34554.1 hPa Calm     59 % 0 mm 162.0 W/m2 CLR
10:05 -12.8 °C -16.9 °C 34567.7 hPa Calm     60 % 0 mm 141.0 W/m2 CLR
10:10 -12.8 °C -17.1 °C 34567.7 hPa Calm     59 % 0 mm 105.0 W/m2 CLR
10:20 -12.6 °C -17.1 °C 34577.8 hPa Calm     57 % 0 mm 111.0 W/m2 CLR
10:25 -12.6 °C -17.2 °C 34577.8 hPa Calm     56 % 0 mm 125.0 W/m2 CLR
10:30 -12.2 °C -16.9 °C 34577.8 hPa Calm     56 % 0 mm 120.0 W/m2 CLR
10:35 -12.2 °C -17 °C 34577.8 hPa Calm     55 % 0 mm 128.0 W/m2 CLR
10:40 -11.9 °C -16.7 °C 34591.4 hPa Calm     55 % 0 mm 149.0 W/m2 CLR
10:50 -11.6 °C -16.9 °C 34591.4 hPa Calm     52 % 0 mm 158.0 W/m2 CLR
11:00 -11.3 °C -16.8 °C 34601.5 hPa Calm     51 % 0 mm 132.0 W/m2 CLR
11:05 -11.3 °C -16.6 °C 34601.5 hPa East 11.9 km/h 11.9 km/h 52 % 0 mm 148.0 W/m2 CLR
11:15 -11.9 °C -16.7 °C 34601.5 hPa East 9 km/h 9 km/h 55 % 0 mm 144.0 W/m2 CLR
11:25 -11.9 °C -16.6 °C 34601.5 hPa East 15 km/h 15 km/h 56 % 0 mm 223.0 W/m2 CLR
11:35 -11.6 °C -16.2 °C 34601.5 hPa East 3.1 km/h   57 % 0 mm 211.0 W/m2 CLR
11:40 -11.6 °C -16.2 °C 34601.5 hPa East 11.9 km/h 11.9 km/h 57 % 0 mm 290.0 W/m2 CLR
11:45 -11.3 °C -15.9 °C 34601.5 hPa Calm     57 % 0 mm 329.0 W/m2 CLR
11:50 -11.3 °C -16 °C 34601.5 hPa Calm     56 % 0 mm 262.0 W/m2 CLR
11:55 -11 °C -15.9 °C 34601.5 hPa Calm     55 % 0 mm 264.0 W/m2 CLR
12:00 -11 °C -15.9 °C 34601.5 hPa East 9 km/h 9 km/h 55 % 0 mm 334.0 W/m2 CLR
12:05 -11 °C -15.9 °C 34601.5 hPa ENE 9 km/h 9 km/h 55 % 0 mm 262.0 W/m2 CLR
12:10 -11 °C -15.9 °C 34601.5 hPa East 6 km/h 6 km/h 55 % 0 mm 633.0 W/m2 CLR
12:15 -10.7 °C -15.7 °C 34601.5 hPa Calm     54 % 0 mm 489.0 W/m2 CLR
12:20 -10.7 °C -15.7 °C 34601.5 hPa East 6 km/h 6 km/h 54 % 0 mm 278.0 W/m2 CLR
12:25 -10.7 °C -15.9 °C 34601.5 hPa Calm     53 % 0 mm 374.0 W/m2 CLR
12:30 -10.4 °C -15.6 °C 34591.4 hPa Calm     53 % 0 mm 506.0 W/m2 CLR
12:35 -10.4 °C -15.9 °C 34591.4 hPa East 3.1 km/h   51 % 0 mm 471.0 W/m2 CLR
12:40 -10.1 °C -15.8 °C 34591.4 hPa Calm     50 % 0 mm 459.0 W/m2 CLR
12:45 -9.8 °C -15.7 °C 34591.4 hPa Calm     49 % 0 mm 459.0 W/m2 CLR
12:50 -9.8 °C -15.8 °C 34577.8 hPa Calm     48 % 0 mm 461.0 W/m2 CLR
12:55 -9.8 °C -15.9 °C 34577.8 hPa Calm     47 % 0 mm 473.0 W/m2 CLR
13:02 -9.4 °C -16 °C 34577.8 hPa Calm     45 % 0 mm 452.0 W/m2 CLR
13:07 -9.4 °C -16 °C 34577.8 hPa East 11.9 km/h 11.9 km/h 45 % 0 mm 478.0 W/m2 CLR
13:12 -9.4 °C -16 °C 34567.7 hPa ESE 5.1 km/h 5.1 km/h 45 % 0 mm 483.0 W/m2 CLR
13:17 -9.1 °C -16.1 °C 34567.7 hPa East 9 km/h 9 km/h 43 % 0 mm 388.0 W/m2 CLR
13:22 -8.8 °C -15.8 °C 34567.7 hPa East 6 km/h 6 km/h 43 % 0 mm 541.0 W/m2 CLR
13:27 -8.8 °C -16.2 °C 34567.7 hPa East 6 km/h   41 % 0 mm 522.0 W/m2 CLR
13:32 -8.5 °C -15.9 °C 34567.7 hPa East 6 km/h   41 % 0 mm 506.0 W/m2 CLR
13:37 -8.2 °C -15.7 °C 34567.7 hPa ENE 6 km/h 6 km/h 41 % 0 mm 552.0 W/m2 CLR
13:42 -7.9 °C -15.8 °C 34567.7 hPa ENE 9 km/h 9 km/h 39 % 0 mm 640.0 W/m2 CLR
13:47 -7.6 °C -15.7 °C 34554.1 hPa East 11.9 km/h 11.9 km/h 38 % 0 mm 515.0 W/m2 CLR
13:57 -7.6 °C -15.7 °C 34554.1 hPa Calm     38 % 0 mm 522.0 W/m2 CLR
14:07 -7.6 °C -15.7 °C 34554.1 hPa ENE 9 km/h 9 km/h 38 % 0 mm 439.0 W/m2 CLR
14:17 -7.6 °C -15.7 °C 34554.1 hPa East 15.6 km/h 15.6 km/h 38 % 0 mm 422.0 W/m2 CLR
14:32 -7.6 °C -15.1 °C 34544 hPa East 11.9 km/h 11.9 km/h 41 % 0 mm 420.0 W/m2 CLR
14:47 -7.9 °C -15.4 °C 34544 hPa East 10.3 km/h 10.3 km/h 41 % 0 mm 178.0 W/m2 CLR
14:52 -7.9 °C -15 °C 34544 hPa ENE 9 km/h 9 km/h 43 % 0 mm 476.0 W/m2 CLR
14:57 -7.6 °C -14.7 °C 34544 hPa East 9 km/h 9 km/h 43 % 0 mm 211.0 W/m2 CLR
15:07 -7.6 °C -14.2 °C 34544 hPa Calm     46 % 0 mm 468.0 W/m2 CLR
15:12 -7.6 °C -14.3 °C 34544 hPa Calm     45 % 0 mm 450.0 W/m2 CLR
15:17 -7.3 °C -13.9 °C 34544 hPa Calm     46 % 0 mm 404.0 W/m2 CLR
15:22 -7.3 °C -14.1 °C 34533.8 hPa Calm     45 % 0 mm 185.0 W/m2 CLR
15:32 -7.3 °C -13.9 °C 34533.8 hPa Calm     46 % 0 mm 338.0 W/m2 CLR
15:37 -7.3 °C -13.9 °C 34544 hPa Calm     46 % 0 mm 316.0 W/m2 CLR
15:42 -7 °C -13.8 °C 34544 hPa Calm     45 % 0 mm 257.0 W/m2 CLR
15:47 -7 °C -13.8 °C 34544 hPa Calm     45 % 0 mm 227.0 W/m2 CLR
15:57 -7.3 °C -14.2 °C 34544 hPa Calm     44 % 0 mm 141.0 W/m2 CLR
16:02 -7.6 °C -14.6 °C 34544 hPa Calm     44 % 0 mm 70.0 W/m2 CLR
16:07 -7.6 °C -14.6 °C 34544 hPa East 6 km/h 6 km/h 44 % 0 mm 156.0 W/m2 CLR
16:13 -7.9 °C -14.6 °C 34544 hPa Calm     45 % 0 mm 197.0 W/m2 CLR
16:18 -7.9 °C -14.4 °C 34544 hPa East 3.1 km/h 3.1 km/h 46 % 0 mm 141.0 W/m2 CLR
16:23 -7.9 °C -14.1 °C 34544 hPa ENE 9 km/h 9 km/h 48 % 0 mm 77.0 W/m2 CLR
16:28 -7.9 °C -14.1 °C 34544 hPa ENE 9 km/h 9 km/h 48 % 0 mm 116.0 W/m2 CLR
16:33 -8.2 °C -14.2 °C 34554.1 hPa Calm     49 % 0 mm 111.0 W/m2 CLR
16:38 -8.5 °C -14.5 °C 34554.1 hPa Calm     49 % 0 mm 62.0 W/m2 FEW
16:43 -8.8 °C -14.6 °C 34554.1 hPa Calm     50 % 0 mm 62.0 W/m2 SCT
16:48 -8.8 °C -14.6 °C 34554.1 hPa Calm     50 % 0 mm 60.0 W/m2 SCT
16:53 -8.8 °C -14.5 °C 34567.7 hPa ENE 2.6 km/h 2.6 km/h 51 % 0 mm 39.0 W/m2 BKN
16:58 -9.1 °C -14.8 °C 34567.7 hPa ENE 9 km/h 9 km/h 51 % 0 mm 26.0 W/m2 BKN
17:03 -9.1 °C -14.6 °C 34567.7 hPa Calm     52 % 0 mm 25.0 W/m2 BKN
17:08 -9.1 °C -14.6 °C 34567.7 hPa Calm     52 % 0 mm 12.0 W/m2 BKN
17:23 -9.1 °C -14 °C 34577.8 hPa Calm     56 % 0 mm 5.0 W/m2 OVC
17:33 -9.4 °C -14.1 °C 34577.8 hPa Calm     57 % 0 mm 0.0 W/m2 OVC
17:38 -9.4 °C -14 °C 34577.8 hPa Calm     58 % 0 mm 0.0 W/m2 OVC
17:43 -9.8 °C -14.3 °C 34577.8 hPa Calm     58 % 0 mm 0.0 W/m2 OVC
17:53 -10.1 °C -14.4 °C 34591.4 hPa Calm     59 % 0 mm 0.0 W/m2 CLR
17:56 -10.1 °C -14.4 °C 34591.4 hPa Calm     59 % 0 mm 0.0 W/m2 CLR
18:06 -10.4 °C -14.6 °C 34591.4 hPa Calm     60 % 0 mm 0.0 W/m2 CLR
18:11 -10.4 °C -14.6 °C 34591.4 hPa Calm     60 % 0 mm 0.0 W/m2 CLR
18:16 -10.7 °C -14.9 °C 34591.4 hPa Calm     60 % 0 mm 0.0 W/m2 CLR
18:21 -11 °C -15.2 °C 34591.4 hPa Calm     60 % 0 mm 0.0 W/m2 CLR
18:26 -11 °C -15.1 °C 34591.4 hPa Calm     61 % 0 mm 0.0 W/m2 CLR
18:41 -11.6 °C -15.4 °C 34601.5 hPa Calm     63 % 0 mm 0.0 W/m2 CLR
18:46 -11.9 °C -15.8 °C 34601.5 hPa Calm     62 % 0 mm 0.0 W/m2 CLR
18:51 -11.6 °C -15.2 °C 34601.5 hPa Calm     64 % 0 mm 0.0 W/m2 CLR
19:01 -11.9 °C -15.6 °C 34601.5 hPa Calm     64 % 0 mm 0.0 W/m2 CLR
19:06 -11.9 °C -15.6 °C 34601.5 hPa West 3.1 km/h 3.1 km/h 64 % 0 mm 0.0 W/m2 CLR
19:11 -12.2 °C -15.7 °C 34601.5 hPa West 11.9 km/h 11.9 km/h 65 % 0 mm 0.0 W/m2 CLR
19:21 -12.6 °C -16.2 °C 34611.7 hPa Calm     64 % 0 mm 0.0 W/m2 CLR
19:31 -12.8 °C -16.3 °C 34611.7 hPa Calm     65 % 0 mm 0.0 W/m2 CLR
19:36 -12.8 °C -16.2 °C 34611.7 hPa Calm     66 % 0 mm 0.0 W/m2 CLR
19:41 -13.2 °C -16.3 °C 34611.7 hPa Calm     67 % 0 mm 0.0 W/m2 CLR
19:46 -12.8 °C -16.1 °C 34611.7 hPa Calm     67 % 0 mm 0.0 W/m2 CLR
19:56 -12.8 °C -16.3 °C 34611.7 hPa WSW 17.9 km/h 17.9 km/h 65 % 0 mm 0.0 W/m2 CLR
20:01 -12.8 °C -16.3 °C 34611.7 hPa Calm     65 % 0 mm 0.0 W/m2 CLR
20:06 -13.2 °C -16.6 °C 34611.7 hPa SW 6 km/h   65 % 0 mm 0.0 W/m2 CLR
20:16 -13.4 °C -16.8 °C 34625.2 hPa West 3.1 km/h 3.1 km/h 66 % 0 mm 0.0 W/m2 CLR
20:21 -13.4 °C -16.6 °C 34625.2 hPa WNW 9 km/h 9 km/h 67 % 0 mm 0.0 W/m2 CLR
20:26 -13.8 °C -17.1 °C 34625.2 hPa Calm     66 % 0 mm 0.0 W/m2 CLR
20:41 -14.1 °C -17.3 °C 34625.2 hPa WSW 11.9 km/h 11.9 km/h 67 % 0 mm 0.0 W/m2 CLR
20:46 -14.1 °C -17.4 °C 34625.2 hPa WSW 17.9 km/h 17.9 km/h 65 % 0 mm 0.0 W/m2 CLR
20:56 -14.4 °C -17.9 °C 34625.2 hPa West 6 km/h   64 % 0 mm 0.0 W/m2 CLR
21:01 -14.4 °C -17.9 °C 34635.4 hPa Calm     64 % 0 mm 0.0 W/m2 CLR
21:06 -14.4 °C -17.9 °C 34625.2 hPa Calm     64 % 0 mm 0.0 W/m2 CLR
21:11 -14.1 °C -17.3 °C 34625.2 hPa Calm     66 % 0 mm 0.0 W/m2 CLR
21:16 -14.4 °C -17.6 °C 34625.2 hPa Calm     67 % 0 mm 0.0 W/m2 CLR
21:22 -14.4 °C -17.3 °C 34635.4 hPa West 17.9 km/h 17.9 km/h 69 % 0 mm 0.0 W/m2 CLR
21:32 -14.7 °C -17.7 °C 34635.4 hPa Calm     68 % 0 mm 0.0 W/m2 CLR
21:37 -14.7 °C -17.7 °C 34635.4 hPa Calm     68 % 0 mm 0.0 W/m2 CLR
21:42 -14.7 °C -17.6 °C 34635.4 hPa Calm     69 % 0 mm 0.0 W/m2 CLR
21:47 -15 °C -18 °C 34635.4 hPa West 10.3 km/h 10.3 km/h 68 % 0 mm 0.0 W/m2 CLR
21:52 -14.7 °C -17.7 °C 34635.4 hPa NW 9 km/h 9 km/h 68 % 0 mm 0.0 W/m2 CLR
21:57 -14.4 °C -17.3 °C 34635.4 hPa NW 9 km/h 9 km/h 69 % 0 mm 0.0 W/m2 CLR
22:02 -14.7 °C -17.7 °C 34635.4 hPa Calm     68 % 0 mm 0.0 W/m2 CLR
22:07 -14.7 °C -17.8 °C 34635.4 hPa Calm     67 % 0 mm 0.0 W/m2 CLR
22:12 -15 °C -18.2 °C 34635.4 hPa Calm     66 % 0 mm 0.0 W/m2 CLR
22:17 -15 °C -18.2 °C 34635.4 hPa Calm     66 % 0 mm 0.0 W/m2 CLR
22:22 -15.3 °C -18.5 °C 34635.4 hPa Calm     66 % 0 mm 0.0 W/m2 CLR
22:27 -15.6 °C -18.8 °C 34635.4 hPa Calm     66 % 0 mm 0.0 W/m2 CLR
22:32 -15.6 °C -18.9 °C 34635.4 hPa Calm     65 % 0 mm 0.0 W/m2 CLR
22:37 -15.6 °C -18.8 °C 34645.6 hPa Calm     66 % 0 mm 0.0 W/m2 CLR
22:42 -15.3 °C -18.7 °C 34645.6 hPa Calm     65 % 0 mm 0.0 W/m2 CLR
22:52 -15.6 °C -18.8 °C 34645.6 hPa Calm     66 % 0 mm 0.0 W/m2 CLR
22:57 -15.6 °C -18.8 °C 34645.6 hPa Calm     66 % 0 mm 0.0 W/m2 CLR
23:17 -15.6 °C -18.7 °C 34635.4 hPa Calm     67 % 0 mm 0.0 W/m2 CLR
23:22 -15.6 °C -18.6 °C 34645.6 hPa Calm     68 % 0 mm 0.0 W/m2 CLR
23:27 -15.6 °C -18.6 °C 34645.6 hPa Calm     68 % 0 mm 0.0 W/m2 CLR
23:32 -15.3 °C -18.3 °C 34645.6 hPa Calm     68 % 0 mm 0.0 W/m2 CLR
23:37 -15 °C -17.9 °C 34635.4 hPa Calm     69 % 0 mm 0.0 W/m2 CLR
23:42 -15 °C -17.8 °C 34645.6 hPa Calm     70 % 0 mm 0.0 W/m2 CLR
23:47 -15.3 °C -18.2 °C 34645.6 hPa Calm     69 % 0 mm 0.0 W/m2 CLR
23:57 -15.3 °C -18.4 °C 34635.4 hPa Calm     67 % 0 mm 0.0 W/m2 CLR
Lo Temps de Massalio
Compliments of Weather Underground - 1 mb